Time;durP1;ratioP1;P1;durP2;ratioP2;P2;SDS_P1;SDS_P2;PMS_P1;PMS_P2;Temp;Humidity;BMP_temperature;BMP_pressure;BME280_temperature;BME280_humidity;BME280_pressure;Samples;Min_cycle;Max_cycle;Signal;HPM_P1;HPM_P2
2021/01/08 00:01:55;;;;;;;;;;;;;;;22.03;27.03;97831.28;5120634;28;642;-76
2021/01/08 00:04:21;;;;;;;;;;;;;;;22.50;25.81;97828.59;5103736;28;1558;-76
2021/01/08 00:06:47;;;;;;;;;;;;;;;22.59;25.77;97822.22;5120357;28;888;-75
2021/01/08 00:09:13;;;;;;;;;;;;;;;22.75;25.32;97824.91;5120395;28;1970;-75
2021/01/08 00:11:38;;;;;;;;;;;;;;;21.97;26.12;97821.78;5134198;27;1556;-75
2021/01/08 00:14:03;;;;;;;;;;;;;;;21.49;27.22;97826.41;5138747;27;1509;-75
2021/01/08 00:16:35;;;;;;;;;;;;;;;21.19;28.01;97836.94;5141030;27;677;-75
2021/01/08 00:19:01;;;;;;;;;;;;;;;21.39;27.58;97821.84;5140647;27;1061;-75
2021/01/08 00:21:56;;;;;;;;;;;;;;;21.60;27.45;97829.72;5140877;28;837;-76
2021/01/08 00:24:21;;;;;;;;;;;;;;;21.44;27.85;97829.78;5113360;28;1549;-75
2021/01/08 00:26:48;;;;;;;;;;;;;;;22.32;26.27;97831.97;5120318;28;849;-75
2021/01/08 00:29:13;;;;;;;;;;;;;;;22.64;26.12;97818.81;5120406;28;1974;-76
2021/01/08 00:31:39;;;;;;;;;;;;;;;22.69;25.80;97826.75;5120354;28;646;-76
2021/01/08 00:34:08;;;;;;;;;;;;;;;22.83;25.62;97836.78;5123122;28;1533;-76
2021/01/08 00:36:34;;;;;;;;;;;;;;;22.12;26.40;97839.91;5140594;28;995;-75
2021/01/08 00:38:59;;;;;;;;;;;;;;;21.42;27.62;97849.28;5141009;28;900;-75
2021/01/08 00:41:28;;;;;;;;;;;;;;;20.75;28.64;97847.00;5140772;28;670;-75
2021/01/08 00:43:57;;;;;;;;;;;;;;;21.73;27.41;97858.88;5140696;28;649;-75
2021/01/08 00:46:38;;;;;;;;;;;;;;;21.69;27.10;97851.72;5139537;28;1556;-75
2021/01/08 00:49:04;;;;;;;;;;;;;;;21.31;27.90;97850.38;5140396;28;1906;-75
2021/01/08 00:51:29;;;;;;;;;;;;;;;22.45;26.16;97851.03;5140450;28;906;-75
2021/01/08 00:53:55;;;;;;;;;;;;;;;22.69;25.66;97843.78;5140704;28;630;-76
2021/01/08 00:56:21;;;;;;;;;;;;;;;22.96;25.08;97839.66;5139100;28;1506;-76
2021/01/08 00:58:49;;;;;;;;;;;;;;;21.96;26.30;97845.66;5122772;28;1036;-76
2021/01/08 01:01:15;;;;;;;;;;;;;;;21.82;26.97;97833.53;5137772;28;1533;-75
2021/01/08 01:03:41;;;;;;;;;;;;;;;21.23;27.77;97831.94;5119922;28;1046;-76
2021/01/08 01:06:06;;;;;;;;;;;;;;;21.59;27.17;97836.63;5119806;28;1486;-76
2021/01/08 01:08:32;;;;;;;;;;;;;;;22.05;26.63;97811.78;5119787;28;1971;-76
2021/01/08 01:10:57;;;;;;;;;;;;;;;22.50;25.93;97819.28;5119834;28;657;-75
2021/01/08 01:13:23;;;;;;;;;;;;;;;22.71;25.66;97812.09;5120307;28;674;-75
2021/01/08 01:15:48;;;;;;;;;;;;;;;22.80;25.54;97813.00;5120231;28;1482;-76
2021/01/08 01:18:14;;;;;;;;;;;;;;;21.84;26.46;97819.69;5120520;28;1442;-75
2021/01/08 01:20:39;;;;;;;;;;;;;;;21.42;27.39;97813.28;5119712;28;901;-76
2021/01/08 01:23:05;;;;;;;;;;;;;;;21.14;27.68;97800.69;5119924;28;987;-76
2021/01/08 01:25:30;;;;;;;;;;;;;;;21.59;27.56;97791.34;5121373;28;666;-76
2021/01/08 01:27:56;;;;;;;;;;;;;;;22.48;26.12;97787.75;5124685;27;1909;-76
2021/01/08 01:30:21;;;;;;;;;;;;;;;22.65;25.60;97775.03;5132037;27;1533;-74
2021/01/08 01:32:47;;;;;;;;;;;;;;;22.93;25.11;97770.41;5143589;27;934;-76
2021/01/08 01:35:12;;;;;;;;;;;;;;;22.54;25.51;97785.94;5143719;27;890;-75
2021/01/08 01:37:38;;;;;;;;;;;;;;;21.14;27.41;97789.38;5142139;27;1590;-75
2021/01/08 01:40:03;;;;;;;;;;;;;;;21.07;27.82;97790.34;5143886;27;705;-75
2021/01/08 01:42:29;;;;;;;;;;;;;;;21.38;27.40;97801.25;5143834;27;673;-75
2021/01/08 01:44:54;;;;;;;;;;;;;;;22.04;26.76;97793.19;5143820;27;666;-75
2021/01/08 01:47:21;;;;;;;;;;;;;;;22.54;25.80;97788.78;5143465;27;1962;-75
2021/01/08 01:49:47;;;;;;;;;;;;;;;22.73;25.39;97787.69;5105515;28;1442;-75
2021/01/08 01:52:12;;;;;;;;;;;;;;;22.72;25.70;97780.44;5105446;28;849;-75
2021/01/08 01:54:38;;;;;;;;;;;;;;;22.29;25.86;97775.44;5123281;28;718;-76
2021/01/08 01:57:03;;;;;;;;;;;;;;;20.92;28.05;97771.41;5122924;28;678;-76
2021/01/08 01:59:28;;;;;;;;;;;;;;;20.75;28.36;97757.31;5127328;27;1601;-76
2021/01/08 02:01:54;;;;;;;;;;;;;;;21.57;27.64;97754.19;5143419;27;905;-75
2021/01/08 02:04:19;;;;;;;;;;;;;;;22.51;25.84;97747.94;5125316;27;887;-75
2021/01/08 02:06:45;;;;;;;;;;;;;;;22.57;25.48;97731.13;5143732;27;914;-76
2021/01/08 02:09:12;;;;;;;;;;;;;;;22.88;25.10;97737.75;5123656;27;1905;-75
2021/01/08 02:11:37;;;;;;;;;;;;;;;21.88;26.26;97733.84;5125589;27;1391;-75
2021/01/08 02:14:10;;;;;;;;;;;;;;;20.64;28.27;97739.84;5125551;27;669;-75
2021/01/08 02:16:36;;;;;;;;;;;;;;;21.72;27.34;97738.34;5142954;27;839;-75
2021/01/08 02:19:14;;;;;;;;;;;;;;;22.35;25.88;97731.88;5125020;27;890;-75
2021/01/08 02:21:45;;;;;;;;;;;;;;;22.59;25.78;97725.81;5124720;27;1999;-76
2021/01/08 02:24:17;;;;;;;;;;;;;;;22.72;25.45;97726.56;5121612;28;1197;-76
2021/01/08 02:26:42;;;;;;;;;;;;;;;22.36;25.63;97729.81;5122422;28;618;-76
2021/01/08 02:29:23;;;;;;;;;;;;;;;21.14;27.63;97729.97;5121971;28;1917;-75
2021/01/08 02:31:48;;;;;;;;;;;;;;;21.35;27.05;97731.41;5119641;28;1507;-75
2021/01/08 02:34:14;;;;;;;;;;;;;;;21.67;27.50;97733.25;5121369;28;826;-75
2021/01/08 02:36:39;;;;;;;;;;;;;;;22.52;25.54;97737.38;5120799;28;590;-76
2021/01/08 02:39:05;;;;;;;;;;;;;;;22.92;25.20;97731.16;5121347;28;1242;-76
2021/01/08 02:41:31;;;;;;;;;;;;;;;22.80;25.42;97730.72;5116627;28;1546;-76
2021/01/08 02:43:56;;;;;;;;;;;;;;;22.84;25.33;97734.22;5121361;28;657;-75
2021/01/08 02:46:22;;;;;;;;;;;;;;;22.01;26.14;97731.78;5121307;28;846;-75
2021/01/08 02:48:47;;;;;;;;;;;;;;;21.43;27.11;97720.66;5121962;28;1975;-76
2021/01/08 02:51:12;;;;;;;;;;;;;;;21.58;26.73;97722.59;5120172;28;1556;-75
2021/01/08 02:53:38;;;;;;;;;;;;;;;21.49;27.29;97719.63;5121867;28;614;-76
2021/01/08 02:56:05;;;;;;;;;;;;;;;22.22;26.47;97718.97;5122262;28;621;-75
2021/01/08 02:58:31;;;;;;;;;;;;;;;22.74;25.54;97732.56;5121043;28;877;-75
2021/01/08 03:00:56;;;;;;;;;;;;;;;22.79;25.63;97720.59;5105117;28;1561;-76
2021/01/08 03:03:22;;;;;;;;;;;;;;;22.60;25.71;97721.72;5100616;28;831;-75
2021/01/08 03:05:48;;;;;;;;;;;;;;;21.17;27.86;97731.88;5100825;28;862;-76
2021/01/08 03:08:13;;;;;;;;;;;;;;;21.14;27.72;97726.31;5101049;28;1902;-76
2021/01/08 03:10:39;;;;;;;;;;;;;;;21.36;27.74;97718.06;5101703;28;1526;-75
2021/01/08 03:13:04;;;;;;;;;;;;;;;22.28;26.18;97723.63;5115041;28;1593;-75
2021/01/08 03:15:30;;;;;;;;;;;;;;;22.57;25.92;97716.97;5120421;28;997;-75
2021/01/08 03:17:55;;;;;;;;;;;;;;;22.70;25.46;97719.75;5121229;28;909;-75
2021/01/08 03:20:21;;;;;;;;;;;;;;;22.69;25.67;97718.16;5119781;28;1462;-75
2021/01/08 03:22:46;;;;;;;;;;;;;;;22.05;26.33;97704.13;5124124;27;998;-76
2021/01/08 03:25:12;;;;;;;;;;;;;;;21.44;27.17;97717.38;5141810;27;697;-76
2021/01/08 03:27:37;;;;;;;;;;;;;;;21.55;26.86;97717.03;5141818;27;1966;-75
2021/01/08 03:30:04;;;;;;;;;;;;;;;21.43;27.38;97715.00;5141664;27;928;-75
2021/01/08 03:32:29;;;;;;;;;;;;;;;22.14;26.65;97724.09;5139354;27;1470;-76
2021/01/08 03:34:54;;;;;;;;;;;;;;;22.54;25.74;97726.41;5123784;27;1470;-75
2021/01/08 03:37:20;;;;;;;;;;;;;;;22.60;25.81;97721.72;5121253;28;623;-75
2021/01/08 03:39:45;;;;;;;;;;;;;;;22.90;25.27;97717.44;5120954;28;690;-76
2021/01/08 03:42:11;;;;;;;;;;;;;;;21.92;26.57;97706.97;5122023;28;1605;-76
2021/01/08 03:44:36;;;;;;;;;;;;;;;21.38;27.19;97707.84;5120677;28;919;-76
2021/01/08 03:47:02;;;;;;;;;;;;;;;21.40;27.50;97698.91;5120737;28;1910;-75
2021/01/08 03:49:27;;;;;;;;;;;;;;;21.69;27.39;97684.66;5120766;28;931;-75
2021/01/08 03:51:52;;;;;;;;;;;;;;;22.40;25.91;97678.69;5121754;27;1446;-75
2021/01/08 03:54:18;;;;;;;;;;;;;;;22.69;25.91;97678.44;5121096;27;1686;-76
2021/01/08 03:56:43;;;;;;;;;;;;;;;22.87;25.23;97676.56;5120871;28;676;-75
2021/01/08 03:59:09;;;;;;;;;;;;;;;22.89;25.34;97676.13;5120361;28;986;-76
2021/01/08 04:01:34;;;;;;;;;;;;;;;22.21;26.02;97672.84;5120394;28;916;-75
2021/01/08 04:04:00;;;;;;;;;;;;;;;21.16;27.41;97678.59;5121648;27;1560;-75
2021/01/08 04:06:25;;;;;;;;;;;;;;;21.47;27.24;97676.06;5120603;28;609;-75
2021/01/08 04:08:50;;;;;;;;;;;;;;;21.72;27.05;97676.06;5120394;28;1886;-75
2021/01/08 04:11:16;;;;;;;;;;;;;;;21.51;27.53;97682.41;5120710;28;656;-75
2021/01/08 04:13:41;;;;;;;;;;;;;;;21.49;27.60;97673.56;5121275;28;1569;-75
2021/01/08 04:16:07;;;;;;;;;;;;;;;22.18;26.52;97679.44;5120176;28;1513;-75
2021/01/08 04:18:32;;;;;;;;;;;;;;;22.54;25.90;97675.34;5125641;27;1558;-75
2021/01/08 04:20:58;;;;;;;;;;;;;;;22.87;25.46;97679.41;5141218;28;590;-75
2021/01/08 04:23:23;;;;;;;;;;;;;;;22.88;25.42;97680.22;5140775;28;1007;-75
2021/01/08 04:25:49;;;;;;;;;;;;;;;22.70;25.34;97680.84;5139340;28;1648;-75
2021/01/08 04:28:14;;;;;;;;;;;;;;;21.87;26.75;97689.75;5140795;28;1941;-75
2021/01/08 04:30:39;;;;;;;;;;;;;;;21.76;26.58;97671.06;5140588;28;873;-75
2021/01/08 04:33:05;;;;;;;;;;;;;;;21.24;27.55;97680.75;5141177;28;873;-75
2021/01/08 04:35:31;;;;;;;;;;;;;;;21.67;26.97;97673.78;5139385;28;1552;-75
2021/01/08 04:37:56;;;;;;;;;;;;;;;22.12;26.61;97675.56;5141138;28;585;-75
2021/01/08 04:40:21;;;;;;;;;;;;;;;22.59;25.57;97664.22;5141065;28;710;-75
2021/01/08 04:42:47;;;;;;;;;;;;;;;22.25;26.09;97656.50;5140369;28;891;-75
2021/01/08 04:45:12;;;;;;;;;;;;;;;22.59;25.61;97657.75;5138932;28;1594;-75
2021/01/08 04:47:38;;;;;;;;;;;;;;;22.67;25.32;97653.41;5140767;28;1977;-74
2021/01/08 04:50:04;;;;;;;;;;;;;;;21.69;26.96;97657.13;5115527;28;1537;-75
2021/01/08 04:52:30;;;;;;;;;;;;;;;21.01;27.88;97642.22;5120093;28;861;-75
2021/01/08 04:54:55;;;;;;;;;;;;;;;21.51;27.15;97651.25;5120153;28;678;-75
2021/01/08 04:57:21;;;;;;;;;;;;;;;21.61;27.26;97635.97;5120060;28;963;-75
2021/01/08 04:59:46;;;;;;;;;;;;;;;22.29;25.85;97653.56;5103369;28;2094;-76
2021/01/08 05:02:12;;;;;;;;;;;;;;;22.73;25.25;97645.88;5123645;27;1612;-75
2021/01/08 05:04:38;;;;;;;;;;;;;;;22.90;25.29;97648.53;5106310;28;544;-75
2021/01/08 05:07:03;;;;;;;;;;;;;;;22.65;25.52;97638.91;5106194;28;1906;-75
2021/01/08 05:09:29;;;;;;;;;;;;;;;21.55;27.08;97640.59;5124271;28;670;-75
2021/01/08 05:11:54;;;;;;;;;;;;;;;21.32;27.36;97641.75;5106126;28;874;-75
2021/01/08 05:14:20;;;;;;;;;;;;;;;21.51;27.45;97643.56;5123686;28;820;-75
2021/01/08 05:16:45;;;;;;;;;;;;;;;22.55;25.77;97640.06;5123695;28;1002;-75
2021/01/08 05:19:11;;;;;;;;;;;;;;;22.75;25.38;97631.25;5123576;28;658;-76
2021/01/08 05:21:36;;;;;;;;;;;;;;;22.90;25.19;97642.88;5105820;28;1373;-75
2021/01/08 05:24:02;;;;;;;;;;;;;;;22.60;25.64;97637.44;5105845;28;1068;-75
2021/01/08 05:26:27;;;;;;;;;;;;;;;21.89;26.48;97628.56;5123142;28;902;-75
2021/01/08 05:28:53;;;;;;;;;;;;;;;21.77;26.62;97630.19;5122923;28;1965;-75
2021/01/08 05:31:19;;;;;;;;;;;;;;;20.99;27.59;97624.94;5123640;28;840;-75
2021/01/08 05:33:45;;;;;;;;;;;;;;;21.77;27.18;97618.84;5123784;28;663;-75
2021/01/08 05:36:11;;;;;;;;;;;;;;;22.23;26.13;97616.50;5123166;28;706;-75
2021/01/08 05:38:39;;;;;;;;;;;;;;;22.59;25.78;97612.38;5123232;28;634;-76
2021/01/08 05:41:04;;;;;;;;;;;;;;;22.68;25.36;97603.94;5123263;28;860;-76
2021/01/08 05:43:30;;;;;;;;;;;;;;;22.69;25.26;97594.19;5122769;28;815;-76
2021/01/08 05:46:06;;;;;;;;;;;;;;;21.62;26.91;97597.91;5123337;28;872;-75
2021/01/08 05:48:31;;;;;;;;;;;;;;;21.08;27.67;97593.13;5122869;28;1886;-75
2021/01/08 05:50:58;;;;;;;;;;;;;;;21.69;26.78;97592.00;5105489;28;670;-75
2021/01/08 05:53:23;;;;;;;;;;;;;;;22.43;25.87;97587.03;5122902;28;701;-75
2021/01/08 05:55:49;;;;;;;;;;;;;;;22.62;25.56;97591.59;5105078;28;916;-75
2021/01/08 05:58:18;;;;;;;;;;;;;;;22.62;25.56;97583.88;5105236;28;1243;-75
2021/01/08 06:00:50;;;;;;;;;;;;;;;22.75;25.06;97588.72;5122955;28;964;-75
2021/01/08 06:03:16;;;;;;;;;;;;;;;21.30;27.23;97605.41;5105080;28;1287;-75
2021/01/08 06:05:41;;;;;;;;;;;;;;;21.42;26.76;97600.97;5104673;28;876;-76
2021/01/08 06:08:07;;;;;;;;;;;;;;;21.41;27.10;97593.75;5071501;28;1890;-75
2021/01/08 06:10:33;;;;;;;;;;;;;;;21.71;26.97;97581.03;5104287;28;949;-75
2021/01/08 06:12:58;;;;;;;;;;;;;;;22.42;25.96;97582.63;5104411;28;840;-75
2021/01/08 06:15:24;;;;;;;;;;;;;;;22.62;25.69;97583.88;5105212;28;967;-75
2021/01/08 06:17:49;;;;;;;;;;;;;;;22.71;25.53;97583.16;5087947;28;663;-75
2021/01/08 06:20:15;;;;;;;;;;;;;;;22.81;24.98;97584.00;5104787;28;631;-75
2021/01/08 06:22:41;;;;;;;;;;;;;;;21.92;26.44;97575.88;5122328;28;897;-75
2021/01/08 06:25:06;;;;;;;;;;;;;;;21.66;26.60;97589.28;5122329;28;841;-76
2021/01/08 06:27:33;;;;;;;;;;;;;;;21.43;27.22;97579.13;5121975;28;1909;-75
2021/01/08 06:30:02;;;;;;;;;;;;;;;22.15;26.13;97577.53;5122368;28;869;-75
2021/01/08 06:32:28;;;;;;;;;;;;;;;22.56;25.59;97567.94;5122345;28;678;-75
2021/01/08 06:34:54;;;;;;;;;;;;;;;22.73;25.40;97577.00;5071224;28;1292;-75
2021/01/08 06:37:21;;;;;;;;;;;;;;;23.03;24.56;97584.00;5122457;28;717;-76
2021/01/08 06:39:55;;;;;;;;;;;;;;;21.74;26.34;97571.59;5104839;28;977;-75
2021/01/08 06:42:27;;;;;;;;;;;;;;;21.70;26.22;97567.31;5104679;28;960;-75
2021/01/08 06:44:55;;;;;;;;;;;;;;;21.47;27.16;97565.66;5122210;28;678;-75
2021/01/08 06:47:21;;;;;;;;;;;;;;;22.52;25.78;97570.09;5121743;28;1913;-75
2021/01/08 06:49:49;;;;;;;;;;;;;;;22.78;25.29;97574.38;5122268;28;595;-75
2021/01/08 06:52:15;;;;;;;;;;;;;;;22.51;25.24;97565.69;5122194;28;702;-75
2021/01/08 06:54:41;;;;;;;;;;;;;;;21.43;26.44;97573.47;5121786;28;948;-75
2021/01/08 06:57:06;;;;;;;;;;;;;;;21.08;27.34;97564.84;5104139;28;847;-75
2021/01/08 06:59:32;;;;;;;;;;;;;;;21.73;27.10;97564.38;5104059;28;968;-75
2021/01/08 07:02:11;;;;;;;;;;;;;;;22.34;25.97;97562.28;5121851;28;627;-75
2021/01/08 07:04:37;;;;;;;;;;;;;;;22.62;25.17;97566.88;5104047;28;683;-75
2021/01/08 07:07:03;;;;;;;;;;;;;;;22.58;25.45;97566.19;5121796;28;702;-75
2021/01/08 07:09:35;;;;;;;;;;;;;;;22.76;25.26;97565.53;5121120;28;1886;-75
2021/01/08 07:12:00;;;;;;;;;;;;;;;22.43;25.34;97559.47;5121582;28;809;-75
2021/01/08 07:14:26;;;;;;;;;;;;;;;21.80;26.08;97564.13;5103291;28;1012;-75
2021/01/08 07:16:53;;;;;;;;;;;;;;;21.39;26.91;97555.81;5086823;28;730;-75
2021/01/08 07:19:19;;;;;;;;;;;;;;;21.71;26.82;97566.88;5121400;28;738;-75
2021/01/08 07:21:47;;;;;;;;;;;;;;;22.25;26.09;97565.81;5121242;28;678;-74
2021/01/08 07:24:13;;;;;;;;;;;;;;;22.64;25.26;97563.59;5120052;28;1035;-75
2021/01/08 07:26:39;;;;;;;;;;;;;;;22.84;24.95;97564.00;5121018;28;954;-75
2021/01/08 07:29:05;;;;;;;;;;;;;;;21.92;26.07;97575.88;5120965;28;1969;-75
2021/01/08 07:31:34;;;;;;;;;;;;;;;21.78;26.48;97580.78;5121284;28;657;-73
2021/01/08 07:34:00;;;;;;;;;;;;;;;21.40;26.57;97580.03;5121437;28;948;-76
2021/01/08 07:36:26;;;;;;;;;;;;;;;21.78;27.19;97575.13;5121122;28;649;-76
2021/01/08 07:38:51;;;;;;;;;;;;;;;22.41;25.76;97552.69;5085980;28;892;-75
2021/01/08 07:41:32;;;;;;;;;;;;;;;22.74;25.04;97542.53;5120764;28;915;-75
2021/01/08 07:43:58;;;;;;;;;;;;;;;22.76;24.97;97540.03;5103292;28;1197;-75
2021/01/08 07:46:30;;;;;;;;;;;;;;;21.74;26.45;97548.97;5120932;28;634;-75
2021/01/08 07:48:56;;;;;;;;;;;;;;;21.44;26.95;97552.41;5120740;28;1885;-75
2021/01/08 07:51:22;;;;;;;;;;;;;;;20.75;27.81;97553.72;5120709;28;972;-75
2021/01/08 07:53:50;;;;;;;;;;;;;;;21.33;27.28;97547.88;5102955;28;1190;-76
2021/01/08 07:56:25;;;;;;;;;;;;;;;22.20;26.01;97540.91;5120700;28;867;-75
2021/01/08 07:59:04;;;;;;;;;;;;;;;22.61;25.28;97531.25;5120695;28;614;-75
2021/01/08 08:01:30;;;;;;;;;;;;;;;22.76;25.11;97537.19;5120715;28;627;-75
2021/01/08 08:03:58;;;;;;;;;;;;;;;22.90;24.81;97523.72;5120755;28;638;-75
2021/01/08 08:06:24;;;;;;;;;;;;;;;21.84;25.97;97516.63;5120246;28;828;-75
2021/01/08 08:08:50;;;;;;;;;;;;;;;20.03;27.13;97340.34;5120345;28;1984;-75
2021/01/08 08:11:16;;;;;;;;;;;;;;;21.31;27.24;97516.44;5103098;28;916;-75
2021/01/08 08:13:45;;;;;;;;;;;;;;;21.97;26.33;97510.94;5120336;28;757;-75
2021/01/08 08:16:13;;;;;;;;;;;;;;;22.37;25.91;97515.97;5120362;28;594;-75
2021/01/08 08:18:51;;;;;;;;;;;;;;;22.80;25.06;97503.00;5120255;28;734;-75
2021/01/08 08:21:16;;;;;;;;;;;;;;;22.93;24.71;97500.09;5120062;28;1022;-75
2021/01/08 08:23:42;;;;;;;;;;;;;;;22.07;25.75;97486.28;5101953;28;1225;-75
2021/01/08 08:26:07;;;;;;;;;;;;;;;20.97;27.27;97485.19;5120189;28;863;-75
2021/01/08 08:28:33;;;;;;;;;;;;;;;21.39;26.82;97482.22;5120124;28;1979;-75
2021/01/08 08:30:59;;;;;;;;;;;;;;;21.68;27.23;97473.56;5120348;28;669;-75
2021/01/08 08:33:25;;;;;;;;;;;;;;;22.25;25.77;97463.78;5120452;28;653;-75
2021/01/08 08:35:51;;;;;;;;;;;;;;;22.52;25.55;97465.19;5121777;28;930;-76
2021/01/08 08:38:16;;;;;;;;;;;;;;;22.93;24.91;97461.16;5124202;28;891;-75
2021/01/08 08:40:42;;;;;;;;;;;;;;;22.74;25.30;97465.97;5124284;28;814;-75
2021/01/08 08:43:08;;;;;;;;;;;;;;;21.94;26.20;97462.91;5124657;28;639;-75
2021/01/08 08:45:36;;;;;;;;;;;;;;;21.69;26.27;97456.09;5124459;28;681;-75
2021/01/08 08:48:05;;;;;;;;;;;;;;;21.53;27.39;97464.75;5124164;28;1976;-75
2021/01/08 08:50:32;;;;;;;;;;;;;;;22.49;25.57;97457.66;5123973;28;852;-75
2021/01/08 08:52:57;;;;;;;;;;;;;;;22.69;25.62;97451.56;5123829;28;944;-75
2021/01/08 08:55:23;;;;;;;;;;;;;;;22.86;25.26;97445.19;5124483;28;808;-74
2021/01/08 08:57:49;;;;;;;;;;;;;;;22.69;25.21;97435.38;5124369;28;650;-75
2021/01/08 09:00:20;;;;;;;;;;;;;;;21.88;26.62;97433.59;5123996;28;682;-75
2021/01/08 09:02:46;;;;;;;;;;;;;;;21.62;26.60;97422.38;5124259;28;670;-75
2021/01/08 09:05:11;;;;;;;;;;;;;;;21.61;26.59;97420.03;5123930;28;1025;-74
2021/01/08 09:07:37;;;;;;;;;;;;;;;21.51;27.06;97428.44;5123446;28;1974;-75
2021/01/08 09:10:09;;;;;;;;;;;;;;;21.41;27.25;97423.16;5105796;28;874;-75
2021/01/08 09:12:37;;;;;;;;;;;;;;;21.66;26.92;97416.56;5123914;28;689;-76
2021/01/08 09:15:04;;;;;;;;;;;;;;;22.21;26.11;97400.78;5123785;28;671;-75
2021/01/08 09:17:32;;;;;;;;;;;;;;;22.46;25.61;97407.53;5106354;28;678;-75
2021/01/08 09:20:01;;;;;;;;;;;;;;;22.68;25.27;97405.41;5123370;28;872;-75
2021/01/08 09:22:27;;;;;;;;;;;;;;;22.80;25.21;97393.19;5123281;28;1050;-75
2021/01/08 09:24:56;;;;;;;;;;;;;;;22.33;25.52;97382.91;5123758;28;879;-75
2021/01/08 09:27:21;;;;;;;;;;;;;;;21.38;27.07;97384.44;5105850;28;1901;-75
2021/01/08 09:29:47;;;;;;;;;;;;;;;21.17;27.71;97375.41;5106027;28;737;-75
2021/01/08 09:32:12;;;;;;;;;;;;;;;22.26;26.26;97366.19;5123573;28;626;-75
2021/01/08 09:34:37;;;;;;;;;;;;;;;22.59;25.58;97362.88;5105223;28;1199;-75
2021/01/08 09:37:15;;;;;;;;;;;;;;;22.72;25.18;97359.91;5123042;28;848;-75
2021/01/08 09:39:42;;;;;;;;;;;;;;;22.66;25.50;97348.38;5123257;28;903;-75
2021/01/08 09:42:07;;;;;;;;;;;;;;;22.56;25.44;97336.22;5123542;28;674;-75
2021/01/08 09:44:33;;;;;;;;;;;;;;;21.14;27.55;97325.41;5123160;28;687;-75
2021/01/08 09:47:00;;;;;;;;;;;;;;;21.17;27.42;97318.03;5122534;28;614;-75
2021/01/08 09:49:25;;;;;;;;;;;;;;;21.46;27.02;97329.16;5122827;28;1901;-75
2021/01/08 09:52:00;;;;;;;;;;;;;;;21.67;27.01;97305.72;5122702;28;869;-74
2021/01/08 09:54:45;;;;;;;;;;;;;;;21.61;27.11;97301.91;5122962;28;892;-75
2021/01/08 09:57:23;;;;;;;;;;;;;;;21.18;27.73;97309.09;5123030;28;713;-74
2021/01/08 09:59:58;;;;;;;;;;;;;;;21.95;26.54;97314.34;5123328;28;638;-75
2021/01/08 10:02:36;;;;;;;;;;;;;;;22.32;26.18;97299.13;5123101;28;1214;-76
2021/01/08 10:05:02;;;;;;;;;;;;;;;21.91;26.38;97285.38;5122450;28;989;-75
2021/01/08 10:07:38;;;;;;;;;;;;;;;21.43;27.08;97279.13;5122430;28;1972;-75
2021/01/08 10:10:03;;;;;;;;;;;;;;;21.45;27.22;97277.44;5122789;28;780;-76
2021/01/08 10:12:29;;;;;;;;;;;;;;;21.62;27.37;97269.50;5122888;28;726;-75
2021/01/08 10:15:01;;;;;;;;;;;;;;;22.45;26.07;97272.72;5122586;28;694;-75
2021/01/08 10:17:27;;;;;;;;;;;;;;;22.65;25.34;97264.59;5122722;28;607;-75
2021/01/08 10:19:52;;;;;;;;;;;;;;;22.70;25.41;97266.78;5104455;28;1426;-75
2021/01/08 10:22:18;;;;;;;;;;;;;;;22.94;25.13;97260.53;5104549;28;906;-75
2021/01/08 10:24:44;;;;;;;;;;;;;;;21.99;26.12;97261.19;5122518;28;1156;-75
2021/01/08 10:27:09;;;;;;;;;;;;;;;21.64;26.97;97254.88;5122705;28;650;-75
2021/01/08 10:29:35;;;;;;;;;;;;;;;21.03;28.10;97257.88;5122588;28;1964;-75
2021/01/08 10:32:07;;;;;;;;;;;;;;;21.39;27.63;97250.94;5122517;28;646;-75
2021/01/08 10:34:36;;;;;;;;;;;;;;;21.94;26.87;97244.81;5121998;28;1056;-75
2021/01/08 10:37:01;;;;;;;;;;;;;;;22.38;25.96;97244.66;5121915;28;973;-75
2021/01/08 10:39:27;;;;;;;;;;;;;;;22.51;25.91;97242.50;5122016;28;947;-75
2021/01/08 10:41:52;;;;;;;;;;;;;;;22.67;25.53;97233.69;5122277;28;618;-75
2021/01/08 10:44:17;;;;;;;;;;;;;;;22.71;25.62;97216.53;5122182;28;698;-74
2021/01/08 10:46:43;;;;;;;;;;;;;;;22.01;26.33;97221.84;5122282;28;686;-75
2021/01/08 10:49:08;;;;;;;;;;;;;;;21.25;27.54;97209.81;5121489;28;1980;-75
2021/01/08 10:51:34;;;;;;;;;;;;;;;20.98;28.25;97199.09;5121679;28;945;-75
2021/01/08 10:53:59;;;;;;;;;;;;;;;21.56;27.31;97214.75;5121707;28;969;-75
2021/01/08 10:56:31;;;;;;;;;;;;;;;21.74;27.14;97212.00;5121773;28;793;-76
2021/01/08 10:58:56;;;;;;;;;;;;;;;22.43;26.11;97210.03;5120967;28;666;-75
2021/01/08 11:01:22;;;;;;;;;;;;;;;22.49;26.09;97211.78;5121767;28;721;-75
2021/01/08 11:03:47;;;;;;;;;;;;;;;22.66;25.78;97194.47;5121570;28;886;-75
2021/01/08 11:06:16;;;;;;;;;;;;;;;22.80;25.31;97202.38;5121319;28;1048;-75
2021/01/08 11:08:42;;;;;;;;;;;;;;;21.67;26.92;97198.13;5121784;28;1984;-75
2021/01/08 11:11:07;;;;;;;;;;;;;;;21.76;26.77;97189.69;5121430;28;646;-75
2021/01/08 11:13:33;;;;;;;;;;;;;;;21.41;27.39;97197.53;5121661;28;627;-74
2021/01/08 11:15:58;;;;;;;;;;;;;;;21.64;27.23;97193.38;5121456;28;627;-74
2021/01/08 11:18:24;;;;;;;;;;;;;;;21.96;26.80;97191.31;5085292;28;883;-73
2021/01/08 11:20:49;;;;;;;;;;;;;;;22.39;25.89;97184.69;5103603;28;1298;-75
2021/01/08 11:23:15;;;;;;;;;;;;;;;22.60;25.84;97182.97;5121184;28;1000;-75
2021/01/08 11:25:41;;;;;;;;;;;;;;;22.71;25.47;97179.66;5086843;28;1150;-74
2021/01/08 11:28:07;;;;;;;;;;;;;;;22.69;25.75;97176.50;5121190;28;1902;-76
2021/01/08 11:30:32;;;;;;;;;;;;;;;21.79;26.77;97170.94;5121593;28;653;-75
2021/01/08 11:32:58;;;;;;;;;;;;;;;21.57;27.03;97166.16;5120718;28;1105;-75
2021/01/08 11:35:23;;;;;;;;;;;;;;;21.32;27.33;97167.13;5120729;28;843;-75
2021/01/08 11:37:49;;;;;;;;;;;;;;;21.70;26.82;97156.75;5121029;28;1001;-75
2021/01/08 11:40:14;;;;;;;;;;;;;;;21.40;27.51;97155.50;5121292;28;710;-75
2021/01/08 11:42:40;;;;;;;;;;;;;;;22.23;26.08;97148.13;5121122;28;650;-75
2021/01/08 11:45:05;;;;;;;;;;;;;;;22.49;25.95;97125.97;5120995;28;686;-75
2021/01/08 11:47:33;;;;;;;;;;;;;;;22.70;25.35;97129.88;5120857;28;1897;-75
2021/01/08 11:49:59;;;;;;;;;;;;;;;22.77;25.04;97121.06;5086236;28;1244;-76
2021/01/08 11:52:25;;;;;;;;;;;;;;;21.73;26.79;97128.31;5120812;28;911;-75
2021/01/08 11:54:50;;;;;;;;;;;;;;;21.58;26.99;97121.66;5120748;28;662;-75
2021/01/08 11:57:16;;;;;;;;;;;;;;;21.57;27.21;97114.41;5120657;28;646;-75
2021/01/08 11:59:41;;;;;;;;;;;;;;;22.51;25.99;97107.19;5121050;28;658;-75
2021/01/08 12:02:07;;;;;;;;;;;;;;;22.76;25.39;97099.63;5085914;28;831;-75
2021/01/08 12:04:32;;;;;;;;;;;;;;;22.68;25.25;97092.69;5120590;28;929;-76
2021/01/08 12:06:59;;;;;;;;;;;;;;;22.76;25.33;97094.75;5120916;28;825;-76
2021/01/08 12:09:24;;;;;;;;;;;;;;;21.37;27.43;97085.72;5120356;28;1913;-75
2021/01/08 12:11:54;;;;;;;;;;;;;;;21.38;27.13;97095.78;5120567;28;623;-76
2021/01/08 12:14:20;;;;;;;;;;;;;;;21.52;26.97;97090.34;5120705;28;670;-75
2021/01/08 12:16:45;;;;;;;;;;;;;;;21.51;27.33;97087.97;5120896;28;652;-75
2021/01/08 12:19:11;;;;;;;;;;;;;;;22.46;26.02;97082.31;5120376;28;642;-75
2021/01/08 12:21:36;;;;;;;;;;;;;;;22.74;25.26;97085.94;5120100;28;1063;-75
2021/01/08 12:24:02;;;;;;;;;;;;;;;22.76;25.26;97082.63;5120328;28;1147;-75
2021/01/08 12:26:27;;;;;;;;;;;;;;;22.95;25.24;97069.19;5102145;28;1430;-76
2021/01/08 12:28:53;;;;;;;;;;;;;;;20.92;28.04;97070.06;5120604;28;1984;-75
2021/01/08 12:31:21;;;;;;;;;;;;;;;20.85;28.26;97067.53;5120474;28;712;-75
2021/01/08 12:33:47;;;;;;;;;;;;;;;21.44;27.35;97083.38;5120156;28;552;-75
2021/01/08 12:36:12;;;;;;;;;;;;;;;21.90;26.86;97079.88;5119845;28;1056;-74
2021/01/08 12:38:38;;;;;;;;;;;;;;;22.36;26.04;97067.38;5120561;28;928;-75
2021/01/08 12:41:03;;;;;;;;;;;;;;;22.82;25.33;97067.31;5120160;28;952;-75
2021/01/08 12:43:29;;;;;;;;;;;;;;;22.97;25.12;97075.19;5120496;28;630;-75
2021/01/08 12:45:54;;;;;;;;;;;;;;;22.53;25.56;97092.53;5120440;28;690;-75
2021/01/08 12:48:20;;;;;;;;;;;;;;;21.27;27.55;97090.50;5120433;28;1902;-75
2021/01/08 12:50:51;;;;;;;;;;;;;;;21.15;27.92;97089.38;5119768;28;860;-75
2021/01/08 12:53:17;;;;;;;;;;;;;;;21.68;27.47;97092.13;5119727;28;1009;-75
2021/01/08 12:55:42;;;;;;;;;;;;;;;22.41;25.88;97085.00;5120117;28;905;-75
2021/01/08 12:58:08;;;;;;;;;;;;;;;22.48;26.11;97084.66;5120235;28;685;-75
2021/01/08 13:00:36;;;;;;;;;;;;;;;22.68;25.68;97082.13;5120317;28;658;-75